sensor_id;sensor_type;location;lat;lon;timestamp;P1;durP1;ratioP1;P2;durP2;ratioP2
787;SDS011;16074;42.708;23.312;2023-02-28T00:01:27;24.90;;;18.30;;
787;SDS011;16074;42.708;23.312;2023-02-28T00:03:56;26.30;;;17.55;;
787;SDS011;16074;42.708;23.312;2023-02-28T00:06:25;23.30;;;16.63;;
787;SDS011;16074;42.708;23.312;2023-02-28T00:08:54;23.00;;;17.27;;
787;SDS011;16074;42.708;23.312;2023-02-28T00:11:22;22.02;;;16.92;;
787;SDS011;16074;42.708;23.312;2023-02-28T00:13:52;23.80;;;15.80;;
787;SDS011;16074;42.708;23.312;2023-02-28T00:16:21;20.25;;;15.95;;
787;SDS011;16074;42.708;23.312;2023-02-28T00:18:50;24.35;;;16.63;;
787;SDS011;16074;42.708;23.312;2023-02-28T00:21:19;28.85;;;16.67;;
787;SDS011;16074;42.708;23.312;2023-02-28T00:23:48;23.55;;;15.57;;
787;SDS011;16074;42.708;23.312;2023-02-28T00:26:16;23.00;;;15.85;;
787;SDS011;16074;42.708;23.312;2023-02-28T00:28:48;20.20;;;16.42;;
787;SDS011;16074;42.708;23.312;2023-02-28T00:31:18;21.30;;;17.58;;
787;SDS011;16074;42.708;23.312;2023-02-28T00:33:47;26.73;;;18.65;;
787;SDS011;16074;42.708;23.312;2023-02-28T00:36:15;32.38;;;20.50;;
787;SDS011;16074;42.708;23.312;2023-02-28T00:38:44;29.30;;;20.27;;
787;SDS011;16074;42.708;23.312;2023-02-28T00:41:12;28.85;;;21.55;;
787;SDS011;16074;42.708;23.312;2023-02-28T00:43:40;32.17;;;21.55;;
787;SDS011;16074;42.708;23.312;2023-02-28T00:46:10;32.13;;;20.20;;
787;SDS011;16074;42.708;23.312;2023-02-28T00:48:40;30.55;;;21.63;;
787;SDS011;16074;42.708;23.312;2023-02-28T00:51:08;30.60;;;22.35;;
787;SDS011;16074;42.708;23.312;2023-02-28T00:53:36;30.08;;;20.45;;
787;SDS011;16074;42.708;23.312;2023-02-28T00:56:05;27.85;;;19.98;;
787;SDS011;16074;42.708;23.312;2023-02-28T00:58:33;33.97;;;22.90;;
787;SDS011;16074;42.708;23.312;2023-02-28T01:01:02;28.38;;;20.73;;
787;SDS011;16074;42.708;23.312;2023-02-28T01:03:31;25.35;;;20.58;;
787;SDS011;16074;42.708;23.312;2023-02-28T01:06:01;31.98;;;20.95;;
787;SDS011;16074;42.708;23.312;2023-02-28T01:08:30;28.42;;;18.90;;
787;SDS011;16074;42.708;23.312;2023-02-28T01:10:58;36.78;;;20.63;;
787;SDS011;16074;42.708;23.312;2023-02-28T01:13:35;29.67;;;19.63;;
787;SDS011;16074;42.708;23.312;2023-02-28T01:16:03;33.33;;;20.80;;
787;SDS011;16074;42.708;23.312;2023-02-28T01:18:33;27.10;;;19.52;;
787;SDS011;16074;42.708;23.312;2023-02-28T01:21:05;27.08;;;18.63;;
787;SDS011;16074;42.708;23.312;2023-02-28T01:23:34;27.63;;;20.90;;
787;SDS011;16074;42.708;23.312;2023-02-28T01:26:05;32.28;;;22.52;;
787;SDS011;16074;42.708;23.312;2023-02-28T01:28:38;36.70;;;22.60;;
787;SDS011;16074;42.708;23.312;2023-02-28T01:31:07;34.88;;;21.83;;
787;SDS011;16074;42.708;23.312;2023-02-28T01:33:37;32.83;;;23.40;;
787;SDS011;16074;42.708;23.312;2023-02-28T01:36:09;38.65;;;23.67;;
787;SDS011;16074;42.708;23.312;2023-02-28T01:38:38;34.25;;;21.58;;
787;SDS011;16074;42.708;23.312;2023-02-28T01:41:07;36.30;;;21.17;;
787;SDS011;16074;42.708;23.312;2023-02-28T01:43:59;30.20;;;20.90;;
787;SDS011;16074;42.708;23.312;2023-02-28T01:46:31;27.42;;;19.25;;
787;SDS011;16074;42.708;23.312;2023-02-28T01:49:02;29.92;;;19.80;;
787;SDS011;16074;42.708;23.312;2023-02-28T01:51:39;27.80;;;17.35;;
787;SDS011;16074;42.708;23.312;2023-02-28T01:54:14;27.25;;;18.33;;
787;SDS011;16074;42.708;23.312;2023-02-28T01:56:47;23.17;;;17.13;;
787;SDS011;16074;42.708;23.312;2023-02-28T01:59:20;34.08;;;19.35;;
787;SDS011;16074;42.708;23.312;2023-02-28T02:01:54;30.27;;;20.23;;
787;SDS011;16074;42.708;23.312;2023-02-28T02:04:23;27.42;;;18.63;;
787;SDS011;16074;42.708;23.312;2023-02-28T02:06:56;23.50;;;18.05;;
787;SDS011;16074;42.708;23.312;2023-02-28T02:09:26;31.63;;;17.33;;
787;SDS011;16074;42.708;23.312;2023-02-28T02:11:54;28.75;;;19.60;;
787;SDS011;16074;42.708;23.312;2023-02-28T02:14:32;33.42;;;18.65;;
787;SDS011;16074;42.708;23.312;2023-02-28T02:17:15;25.73;;;18.42;;
787;SDS011;16074;42.708;23.312;2023-02-28T02:20:02;30.35;;;19.90;;
787;SDS011;16074;42.708;23.312;2023-02-28T02:23:06;27.67;;;17.73;;
787;SDS011;16074;42.708;23.312;2023-02-28T02:25:49;34.95;;;19.02;;
787;SDS011;16074;42.708;23.312;2023-02-28T02:31:40;27.20;;;19.00;;
787;SDS011;16074;42.708;23.312;2023-02-28T02:34:28;33.67;;;19.15;;
787;SDS011;16074;42.708;23.312;2023-02-28T02:37:15;31.00;;;19.20;;
787;SDS011;16074;42.708;23.312;2023-02-28T02:39:52;30.13;;;18.20;;
787;SDS011;16074;42.708;23.312;2023-02-28T02:42:25;26.08;;;18.10;;
787;SDS011;16074;42.708;23.312;2023-02-28T02:44:59;38.75;;;19.70;;
787;SDS011;16074;42.708;23.312;2023-02-28T02:47:30;37.25;;;21.73;;
787;SDS011;16074;42.708;23.312;2023-02-28T02:50:04;35.03;;;20.65;;
787;SDS011;16074;42.708;23.312;2023-02-28T02:52:37;43.60;;;23.63;;
787;SDS011;16074;42.708;23.312;2023-02-28T02:55:09;35.72;;;21.63;;
787;SDS011;16074;42.708;23.312;2023-02-28T02:57:40;36.83;;;19.98;;
787;SDS011;16074;42.708;23.312;2023-02-28T03:00:14;28.77;;;20.65;;
787;SDS011;16074;42.708;23.312;2023-02-28T03:02:46;30.90;;;19.02;;
787;SDS011;16074;42.708;23.312;2023-02-28T03:05:19;33.92;;;19.05;;
787;SDS011;16074;42.708;23.312;2023-02-28T03:07:51;32.97;;;18.48;;
787;SDS011;16074;42.708;23.312;2023-02-28T03:10:33;34.33;;;18.67;;
787;SDS011;16074;42.708;23.312;2023-02-28T03:16:15;31.73;;;19.45;;
787;SDS011;16074;42.708;23.312;2023-02-28T03:19:03;31.02;;;18.25;;
787;SDS011;16074;42.708;23.312;2023-02-28T03:21:49;31.42;;;18.63;;
787;SDS011;16074;42.708;23.312;2023-02-28T03:24:27;27.17;;;19.35;;
787;SDS011;16074;42.708;23.312;2023-02-28T03:27:03;40.83;;;21.95;;
787;SDS011;16074;42.708;23.312;2023-02-28T03:29:35;40.08;;;22.33;;
787;SDS011;16074;42.708;23.312;2023-02-28T03:32:08;36.83;;;21.20;;
787;SDS011;16074;42.708;23.312;2023-02-28T03:34:46;37.13;;;21.05;;
787;SDS011;16074;42.708;23.312;2023-02-28T03:37:19;35.35;;;20.75;;
787;SDS011;16074;42.708;23.312;2023-02-28T03:39:53;42.65;;;23.30;;
787;SDS011;16074;42.708;23.312;2023-02-28T03:42:25;38.58;;;21.27;;
787;SDS011;16074;42.708;23.312;2023-02-28T03:44:57;36.80;;;20.40;;
787;SDS011;16074;42.708;23.312;2023-02-28T03:47:29;35.90;;;20.55;;
787;SDS011;16074;42.708;23.312;2023-02-28T03:50:04;33.03;;;21.23;;
787;SDS011;16074;42.708;23.312;2023-02-28T03:52:38;34.50;;;19.00;;
787;SDS011;16074;42.708;23.312;2023-02-28T03:55:11;28.05;;;18.58;;
787;SDS011;16074;42.708;23.312;2023-02-28T03:57:44;25.83;;;17.50;;
787;SDS011;16074;42.708;23.312;2023-02-28T04:00:25;26.45;;;17.35;;
787;SDS011;16074;42.708;23.312;2023-02-28T04:02:59;26.17;;;16.88;;
787;SDS011;16074;42.708;23.312;2023-02-28T04:05:29;28.65;;;17.55;;
787;SDS011;16074;42.708;23.312;2023-02-28T04:08:04;29.80;;;18.67;;
787;SDS011;16074;42.708;23.312;2023-02-28T04:10:33;25.65;;;17.25;;
787;SDS011;16074;42.708;23.312;2023-02-28T04:13:01;27.63;;;17.17;;
787;SDS011;16074;42.708;23.312;2023-02-28T04:15:29;30.73;;;16.88;;
787;SDS011;16074;42.708;23.312;2023-02-28T04:17:58;29.38;;;18.73;;
787;SDS011;16074;42.708;23.312;2023-02-28T04:20:26;27.98;;;18.65;;
787;SDS011;16074;42.708;23.312;2023-02-28T04:22:55;33.83;;;19.13;;
787;SDS011;16074;42.708;23.312;2023-02-28T04:25:24;43.13;;;19.25;;
787;SDS011;16074;42.708;23.312;2023-02-28T04:27:53;29.58;;;20.00;;
787;SDS011;16074;42.708;23.312;2023-02-28T04:30:21;37.00;;;22.48;;
787;SDS011;16074;42.708;23.312;2023-02-28T04:32:49;37.97;;;21.80;;
787;SDS011;16074;42.708;23.312;2023-02-28T04:35:18;38.92;;;23.10;;
787;SDS011;16074;42.708;23.312;2023-02-28T04:37:46;37.42;;;22.02;;
787;SDS011;16074;42.708;23.312;2023-02-28T04:40:15;39.70;;;22.75;;
787;SDS011;16074;42.708;23.312;2023-02-28T04:42:45;26.65;;;19.83;;
787;SDS011;16074;42.708;23.312;2023-02-28T04:45:13;32.28;;;19.15;;
787;SDS011;16074;42.708;23.312;2023-02-28T04:47:41;31.08;;;20.33;;
787;SDS011;16074;42.708;23.312;2023-02-28T04:50:10;30.42;;;20.92;;
787;SDS011;16074;42.708;23.312;2023-02-28T04:52:38;30.95;;;22.48;;
787;SDS011;16074;42.708;23.312;2023-02-28T04:55:07;37.70;;;22.95;;
787;SDS011;16074;42.708;23.312;2023-02-28T04:57:36;42.72;;;25.15;;
787;SDS011;16074;42.708;23.312;2023-02-28T05:00:06;40.63;;;26.50;;
787;SDS011;16074;42.708;23.312;2023-02-28T05:02:38;41.30;;;26.55;;
787;SDS011;16074;42.708;23.312;2023-02-28T05:05:06;40.08;;;26.10;;
787;SDS011;16074;42.708;23.312;2023-02-28T05:07:35;44.40;;;25.83;;
787;SDS011;16074;42.708;23.312;2023-02-28T05:10:03;50.35;;;28.05;;
787;SDS011;16074;42.708;23.312;2023-02-28T05:12:32;57.05;;;29.52;;
787;SDS011;16074;42.708;23.312;2023-02-28T05:15:00;48.72;;;28.05;;
787;SDS011;16074;42.708;23.312;2023-02-28T05:17:30;48.97;;;28.90;;
787;SDS011;16074;42.708;23.312;2023-02-28T05:19:58;55.28;;;29.67;;
787;SDS011;16074;42.708;23.312;2023-02-28T05:22:40;53.70;;;30.48;;
787;SDS011;16074;42.708;23.312;2023-02-28T05:25:09;55.97;;;30.88;;
787;SDS011;16074;42.708;23.312;2023-02-28T05:27:40;51.95;;;31.63;;
787;SDS011;16074;42.708;23.312;2023-02-28T05:30:08;52.00;;;32.70;;
787;SDS011;16074;42.708;23.312;2023-02-28T05:32:39;65.47;;;37.47;;
787;SDS011;16074;42.708;23.312;2023-02-28T05:35:09;62.03;;;37.08;;
787;SDS011;16074;42.708;23.312;2023-02-28T05:37:39;72.55;;;38.08;;
787;SDS011;16074;42.708;23.312;2023-02-28T05:40:08;59.67;;;32.53;;
787;SDS011;16074;42.708;23.312;2023-02-28T05:42:37;73.82;;;34.67;;
787;SDS011;16074;42.708;23.312;2023-02-28T05:45:06;56.63;;;30.58;;
787;SDS011;16074;42.708;23.312;2023-02-28T05:47:35;66.43;;;31.80;;
787;SDS011;16074;42.708;23.312;2023-02-28T05:50:06;59.33;;;34.17;;
787;SDS011;16074;42.708;23.312;2023-02-28T05:52:36;50.53;;;29.75;;
787;SDS011;16074;42.708;23.312;2023-02-28T05:55:04;59.33;;;29.95;;
787;SDS011;16074;42.708;23.312;2023-02-28T05:57:33;45.67;;;29.23;;
787;SDS011;16074;42.708;23.312;2023-02-28T06:00:02;57.22;;;27.92;;
787;SDS011;16074;42.708;23.312;2023-02-28T06:02:38;48.97;;;28.05;;
787;SDS011;16074;42.708;23.312;2023-02-28T06:05:09;53.45;;;30.92;;
787;SDS011;16074;42.708;23.312;2023-02-28T06:07:41;49.35;;;28.70;;
787;SDS011;16074;42.708;23.312;2023-02-28T06:10:10;48.40;;;29.10;;
787;SDS011;16074;42.708;23.312;2023-02-28T06:12:39;54.15;;;28.95;;
787;SDS011;16074;42.708;23.312;2023-02-28T06:15:10;43.15;;;27.13;;
787;SDS011;16074;42.708;23.312;2023-02-28T06:17:40;54.72;;;27.85;;
787;SDS011;16074;42.708;23.312;2023-02-28T06:20:11;40.67;;;27.90;;
787;SDS011;16074;42.708;23.312;2023-02-28T06:22:40;59.50;;;30.05;;
787;SDS011;16074;42.708;23.312;2023-02-28T06:25:09;55.15;;;31.27;;
787;SDS011;16074;42.708;23.312;2023-02-28T06:27:38;53.65;;;29.55;;
787;SDS011;16074;42.708;23.312;2023-02-28T06:30:07;63.03;;;30.17;;
787;SDS011;16074;42.708;23.312;2023-02-28T06:32:35;66.57;;;32.13;;
787;SDS011;16074;42.708;23.312;2023-02-28T06:35:04;49.63;;;29.13;;
787;SDS011;16074;42.708;23.312;2023-02-28T06:37:34;51.72;;;29.25;;
787;SDS011;16074;42.708;23.312;2023-02-28T06:40:03;49.08;;;29.00;;
787;SDS011;16074;42.708;23.312;2023-02-28T06:42:34;60.78;;;34.60;;
787;SDS011;16074;42.708;23.312;2023-02-28T06:45:02;63.45;;;36.83;;
787;SDS011;16074;42.708;23.312;2023-02-28T06:47:36;59.60;;;37.42;;
787;SDS011;16074;42.708;23.312;2023-02-28T06:50:05;63.78;;;38.35;;
787;SDS011;16074;42.708;23.312;2023-02-28T06:52:36;64.50;;;36.47;;
787;SDS011;16074;42.708;23.312;2023-02-28T06:55:05;57.05;;;35.70;;
787;SDS011;16074;42.708;23.312;2023-02-28T06:57:35;55.25;;;33.92;;
787;SDS011;16074;42.708;23.312;2023-02-28T07:00:04;52.53;;;31.45;;
787;SDS011;16074;42.708;23.312;2023-02-28T07:02:34;50.92;;;31.40;;
787;SDS011;16074;42.708;23.312;2023-02-28T07:05:02;47.17;;;29.95;;
787;SDS011;16074;42.708;23.312;2023-02-28T07:07:31;44.80;;;27.67;;
787;SDS011;16074;42.708;23.312;2023-02-28T07:10:01;43.78;;;30.10;;
787;SDS011;16074;42.708;23.312;2023-02-28T07:12:29;42.95;;;29.35;;
787;SDS011;16074;42.708;23.312;2023-02-28T07:14:57;53.10;;;29.33;;
787;SDS011;16074;42.708;23.312;2023-02-28T07:17:26;41.78;;;28.33;;
787;SDS011;16074;42.708;23.312;2023-02-28T07:19:54;40.05;;;26.63;;
787;SDS011;16074;42.708;23.312;2023-02-28T07:22:22;36.30;;;24.55;;
787;SDS011;16074;42.708;23.312;2023-02-28T07:24:51;37.90;;;25.70;;
787;SDS011;16074;42.708;23.312;2023-02-28T07:27:21;37.05;;;25.27;;
787;SDS011;16074;42.708;23.312;2023-02-28T07:29:52;35.45;;;24.55;;
787;SDS011;16074;42.708;23.312;2023-02-28T07:32:21;33.78;;;23.42;;
787;SDS011;16074;42.708;23.312;2023-02-28T07:34:49;44.25;;;25.08;;
787;SDS011;16074;42.708;23.312;2023-02-28T07:37:18;32.10;;;24.02;;
787;SDS011;16074;42.708;23.312;2023-02-28T07:39:46;35.03;;;24.52;;
787;SDS011;16074;42.708;23.312;2023-02-28T07:42:14;35.45;;;24.67;;
787;SDS011;16074;42.708;23.312;2023-02-28T07:44:44;34.47;;;24.08;;
787;SDS011;16074;42.708;23.312;2023-02-28T07:47:13;42.90;;;25.42;;
787;SDS011;16074;42.708;23.312;2023-02-28T07:49:41;33.63;;;24.92;;
787;SDS011;16074;42.708;23.312;2023-02-28T07:52:09;36.13;;;25.00;;
787;SDS011;16074;42.708;23.312;2023-02-28T07:54:37;40.97;;;24.75;;
787;SDS011;16074;42.708;23.312;2023-02-28T07:57:06;31.70;;;23.08;;
787;SDS011;16074;42.708;23.312;2023-02-28T07:59:34;34.75;;;24.90;;
787;SDS011;16074;42.708;23.312;2023-02-28T08:02:03;35.38;;;25.90;;
787;SDS011;16074;42.708;23.312;2023-02-28T08:04:32;37.90;;;27.73;;
787;SDS011;16074;42.708;23.312;2023-02-28T08:07:00;33.65;;;25.20;;
787;SDS011;16074;42.708;23.312;2023-02-28T08:09:28;34.33;;;24.00;;
787;SDS011;16074;42.708;23.312;2023-02-28T08:11:57;35.28;;;26.13;;
787;SDS011;16074;42.708;23.312;2023-02-28T08:14:26;32.85;;;24.75;;
787;SDS011;16074;42.708;23.312;2023-02-28T08:16:54;38.95;;;25.45;;
787;SDS011;16074;42.708;23.312;2023-02-28T08:19:23;38.08;;;24.95;;
787;SDS011;16074;42.708;23.312;2023-02-28T08:21:52;35.65;;;24.02;;
787;SDS011;16074;42.708;23.312;2023-02-28T08:24:20;34.13;;;25.92;;
787;SDS011;16074;42.708;23.312;2023-02-28T08:26:49;29.60;;;22.30;;
787;SDS011;16074;42.708;23.312;2023-02-28T08:29:17;29.98;;;24.55;;
787;SDS011;16074;42.708;23.312;2023-02-28T08:31:45;35.42;;;23.48;;
787;SDS011;16074;42.708;23.312;2023-02-28T08:34:14;35.38;;;24.75;;
787;SDS011;16074;42.708;23.312;2023-02-28T08:36:45;35.53;;;24.95;;
787;SDS011;16074;42.708;23.312;2023-02-28T08:39:13;37.05;;;26.85;;
787;SDS011;16074;42.708;23.312;2023-02-28T08:41:42;37.65;;;25.65;;
787;SDS011;16074;42.708;23.312;2023-02-28T08:44:10;33.00;;;24.65;;
787;SDS011;16074;42.708;23.312;2023-02-28T08:46:38;37.13;;;25.10;;
787;SDS011;16074;42.708;23.312;2023-02-28T08:49:07;37.50;;;25.83;;
787;SDS011;16074;42.708;23.312;2023-02-28T08:51:38;35.42;;;26.83;;
787;SDS011;16074;42.708;23.312;2023-02-28T08:54:08;38.90;;;28.02;;
787;SDS011;16074;42.708;23.312;2023-02-28T08:56:38;30.88;;;26.17;;
787;SDS011;16074;42.708;23.312;2023-02-28T08:59:08;34.60;;;27.58;;
787;SDS011;16074;42.708;23.312;2023-02-28T09:01:37;36.15;;;27.25;;
787;SDS011;16074;42.708;23.312;2023-02-28T09:04:05;39.80;;;27.85;;
787;SDS011;16074;42.708;23.312;2023-02-28T09:06:35;42.60;;;29.27;;
787;SDS011;16074;42.708;23.312;2023-02-28T09:09:03;42.35;;;29.30;;
787;SDS011;16074;42.708;23.312;2023-02-28T09:11:35;48.72;;;32.90;;
787;SDS011;16074;42.708;23.312;2023-02-28T09:14:03;47.63;;;34.38;;
787;SDS011;16074;42.708;23.312;2023-02-28T09:16:32;42.42;;;33.63;;
787;SDS011;16074;42.708;23.312;2023-02-28T09:19:02;42.63;;;32.80;;
787;SDS011;16074;42.708;23.312;2023-02-28T09:21:30;42.10;;;32.92;;
787;SDS011;16074;42.708;23.312;2023-02-28T09:23:59;45.13;;;32.25;;
787;SDS011;16074;42.708;23.312;2023-02-28T09:26:27;45.70;;;33.67;;
787;SDS011;16074;42.708;23.312;2023-02-28T09:29:09;49.20;;;34.72;;
787;SDS011;16074;42.708;23.312;2023-02-28T09:31:38;46.30;;;32.92;;
787;SDS011;16074;42.708;23.312;2023-02-28T09:34:07;44.85;;;32.92;;
787;SDS011;16074;42.708;23.312;2023-02-28T09:36:35;43.53;;;33.00;;
787;SDS011;16074;42.708;23.312;2023-02-28T09:39:11;42.97;;;30.98;;
787;SDS011;16074;42.708;23.312;2023-02-28T09:41:42;43.92;;;31.80;;
787;SDS011;16074;42.708;23.312;2023-02-28T09:44:20;44.50;;;32.05;;
787;SDS011;16074;42.708;23.312;2023-02-28T09:46:56;47.13;;;29.00;;
787;SDS011;16074;42.708;23.312;2023-02-28T09:49:29;41.67;;;29.45;;
787;SDS011;16074;42.708;23.312;2023-02-28T09:52:04;40.58;;;28.85;;
787;SDS011;16074;42.708;23.312;2023-02-28T09:54:37;48.20;;;32.15;;
787;SDS011;16074;42.708;23.312;2023-02-28T09:57:08;36.85;;;25.23;;
787;SDS011;16074;42.708;23.312;2023-02-28T09:59:48;32.45;;;20.30;;
787;SDS011;16074;42.708;23.312;2023-02-28T10:02:37;29.73;;;18.75;;
787;SDS011;16074;42.708;23.312;2023-02-28T10:05:13;27.48;;;16.80;;
787;SDS011;16074;42.708;23.312;2023-02-28T10:07:50;20.35;;;15.40;;
787;SDS011;16074;42.708;23.312;2023-02-28T10:10:30;21.05;;;15.07;;
787;SDS011;16074;42.708;23.312;2023-02-28T10:13:06;25.40;;;15.85;;
787;SDS011;16074;42.708;23.312;2023-02-28T10:15:41;23.15;;;14.60;;
787;SDS011;16074;42.708;23.312;2023-02-28T10:18:13;21.42;;;15.40;;
787;SDS011;16074;42.708;23.312;2023-02-28T10:20:47;25.85;;;13.43;;
787;SDS011;16074;42.708;23.312;2023-02-28T10:23:19;27.98;;;13.93;;
787;SDS011;16074;42.708;23.312;2023-02-28T10:25:53;20.95;;;14.02;;
787;SDS011;16074;42.708;23.312;2023-02-28T10:28:25;23.17;;;14.57;;
787;SDS011;16074;42.708;23.312;2023-02-28T10:30:58;19.35;;;13.05;;
787;SDS011;16074;42.708;23.312;2023-02-28T10:33:28;22.90;;;12.88;;
787;SDS011;16074;42.708;23.312;2023-02-28T10:35:58;23.15;;;13.02;;
787;SDS011;16074;42.708;23.312;2023-02-28T10:38:28;20.42;;;11.27;;
787;SDS011;16074;42.708;23.312;2023-02-28T10:41:04;23.33;;;13.25;;
787;SDS011;16074;42.708;23.312;2023-02-28T10:43:34;18.70;;;12.32;;
787;SDS011;16074;42.708;23.312;2023-02-28T10:46:05;19.75;;;12.32;;
787;SDS011;16074;42.708;23.312;2023-02-28T10:48:43;20.45;;;13.23;;
787;SDS011;16074;42.708;23.312;2023-02-28T10:51:14;16.80;;;11.73;;
787;SDS011;16074;42.708;23.312;2023-02-28T10:53:47;18.17;;;13.80;;
787;SDS011;16074;42.708;23.312;2023-02-28T10:56:27;27.80;;;14.52;;
787;SDS011;16074;42.708;23.312;2023-02-28T10:58:58;21.02;;;13.55;;
787;SDS011;16074;42.708;23.312;2023-02-28T11:01:37;17.33;;;13.02;;
787;SDS011;16074;42.708;23.312;2023-02-28T11:04:17;22.10;;;13.83;;
787;SDS011;16074;42.708;23.312;2023-02-28T11:06:48;19.20;;;14.67;;
787;SDS011;16074;42.708;23.312;2023-02-28T11:09:27;19.90;;;14.40;;
787;SDS011;16074;42.708;23.312;2023-02-28T11:11:58;23.37;;;15.87;;
787;SDS011;16074;42.708;23.312;2023-02-28T11:14:28;19.00;;;14.10;;
787;SDS011;16074;42.708;23.312;2023-02-28T11:17:02;20.93;;;13.80;;
787;SDS011;16074;42.708;23.312;2023-02-28T11:19:40;23.97;;;15.20;;
787;SDS011;16074;42.708;23.312;2023-02-28T11:22:16;16.17;;;13.03;;
787;SDS011;16074;42.708;23.312;2023-02-28T11:24:47;19.90;;;14.07;;
787;SDS011;16074;42.708;23.312;2023-02-28T11:27:26;17.70;;;13.90;;
787;SDS011;16074;42.708;23.312;2023-02-28T11:33:14;25.40;;;13.93;;
787;SDS011;16074;42.708;23.312;2023-02-28T11:35:49;18.90;;;13.03;;
787;SDS011;16074;42.708;23.312;2023-02-28T11:38:19;20.10;;;12.23;;
787;SDS011;16074;42.708;23.312;2023-02-28T11:40:49;21.00;;;13.53;;
787;SDS011;16074;42.708;23.312;2023-02-28T11:43:30;20.40;;;12.93;;
787;SDS011;16074;42.708;23.312;2023-02-28T11:46:10;19.20;;;13.63;;
787;SDS011;16074;42.708;23.312;2023-02-28T11:48:52;22.87;;;13.20;;
787;SDS011;16074;42.708;23.312;2023-02-28T11:51:29;23.17;;;15.03;;
787;SDS011;16074;42.708;23.312;2023-02-28T11:54:06;17.00;;;12.40;;
787;SDS011;16074;42.708;23.312;2023-02-28T11:56:49;21.77;;;13.03;;
787;SDS011;16074;42.708;23.312;2023-02-28T11:59:35;23.80;;;12.90;;
787;SDS011;16074;42.708;23.312;2023-02-28T12:02:20;15.50;;;10.40;;
787;SDS011;16074;42.708;23.312;2023-02-28T12:04:55;15.27;;;10.47;;
787;SDS011;16074;42.708;23.312;2023-02-28T12:07:40;16.07;;;12.10;;
787;SDS011;16074;42.708;23.312;2023-02-28T12:10:18;21.67;;;12.57;;
787;SDS011;16074;42.708;23.312;2023-02-28T12:12:52;16.30;;;12.00;;
787;SDS011;16074;42.708;23.312;2023-02-28T12:15:47;30.03;;;12.33;;
787;SDS011;16074;42.708;23.312;2023-02-28T12:21:31;16.90;;;10.90;;
787;SDS011;16074;42.708;23.312;2023-02-28T12:24:32;17.10;;;10.70;;
787;SDS011;16074;42.708;23.312;2023-02-28T12:27:22;15.97;;;10.50;;
787;SDS011;16074;42.708;23.312;2023-02-28T12:29:55;14.57;;;12.43;;
787;SDS011;16074;42.708;23.312;2023-02-28T12:32:30;14.63;;;10.93;;
787;SDS011;16074;42.708;23.312;2023-02-28T12:35:02;26.47;;;13.47;;
787;SDS011;16074;42.708;23.312;2023-02-28T12:37:36;20.33;;;13.57;;
787;SDS011;16074;42.708;23.312;2023-02-28T12:40:11;18.53;;;12.83;;
787;SDS011;16074;42.708;23.312;2023-02-28T12:42:42;15.83;;;11.10;;
787;SDS011;16074;42.708;23.312;2023-02-28T12:45:15;13.50;;;11.27;;
787;SDS011;16074;42.708;23.312;2023-02-28T12:47:48;20.43;;;11.73;;
787;SDS011;16074;42.708;23.312;2023-02-28T12:50:20;16.40;;;11.23;;
787;SDS011;16074;42.708;23.312;2023-02-28T12:52:54;22.97;;;12.87;;
787;SDS011;16074;42.708;23.312;2023-02-28T12:55:28;17.10;;;11.10;;
787;SDS011;16074;42.708;23.312;2023-02-28T12:58:07;15.40;;;11.60;;
787;SDS011;16074;42.708;23.312;2023-02-28T13:00:45;18.13;;;10.60;;
787;SDS011;16074;42.708;23.312;2023-02-28T13:03:41;13.73;;;10.07;;
787;SDS011;16074;42.708;23.312;2023-02-28T13:06:23;18.77;;;11.53;;
787;SDS011;16074;42.708;23.312;2023-02-28T13:09:10;21.13;;;12.27;;
787;SDS011;16074;42.708;23.312;2023-02-28T13:11:42;15.30;;;10.07;;
787;SDS011;16074;42.708;23.312;2023-02-28T13:14:18;17.83;;;11.93;;
787;SDS011;16074;42.708;23.312;2023-02-28T13:16:51;21.83;;;12.33;;
787;SDS011;16074;42.708;23.312;2023-02-28T13:19:25;16.87;;;11.93;;
787;SDS011;16074;42.708;23.312;2023-02-28T13:21:55;20.13;;;13.73;;
787;SDS011;16074;42.708;23.312;2023-02-28T13:24:41;14.43;;;10.17;;
787;SDS011;16074;42.708;23.312;2023-02-28T13:38:52;22.30;;;12.57;;
787;SDS011;16074;42.708;23.312;2023-02-28T13:44:15;17.07;;;10.10;;
787;SDS011;16074;42.708;23.312;2023-02-28T13:49:51;18.87;;;11.17;;
787;SDS011;16074;42.708;23.312;2023-02-28T13:52:21;17.50;;;10.43;;
787;SDS011;16074;42.708;23.312;2023-02-28T13:54:54;19.70;;;10.87;;
787;SDS011;16074;42.708;23.312;2023-02-28T13:57:33;23.35;;;11.70;;
787;SDS011;16074;42.708;23.312;2023-02-28T14:00:16;21.25;;;10.75;;
787;SDS011;16074;42.708;23.312;2023-02-28T14:06:10;16.90;;;9.60;;
787;SDS011;16074;42.708;23.312;2023-02-28T14:08:49;21.05;;;11.00;;
787;SDS011;16074;42.708;23.312;2023-02-28T14:11:26;16.08;;;11.02;;
787;SDS011;16074;42.708;23.312;2023-02-28T14:13:58;18.02;;;12.90;;
787;SDS011;16074;42.708;23.312;2023-02-28T14:16:27;19.85;;;10.50;;
787;SDS011;16074;42.708;23.312;2023-02-28T14:19:09;17.17;;;11.32;;
787;SDS011;16074;42.708;23.312;2023-02-28T14:21:43;14.18;;;10.48;;
787;SDS011;16074;42.708;23.312;2023-02-28T14:24:32;15.70;;;10.23;;
787;SDS011;16074;42.708;23.312;2023-02-28T14:27:28;15.73;;;10.38;;
787;SDS011;16074;42.708;23.312;2023-02-28T14:33:22;19.70;;;12.30;;
787;SDS011;16074;42.708;23.312;2023-02-28T14:35:58;20.10;;;10.65;;
787;SDS011;16074;42.708;23.312;2023-02-28T14:38:33;16.52;;;10.07;;
787;SDS011;16074;42.708;23.312;2023-02-28T14:41:12;15.85;;;9.65;;
787;SDS011;16074;42.708;23.312;2023-02-28T14:43:48;20.77;;;11.77;;
787;SDS011;16074;42.708;23.312;2023-02-28T14:46:21;18.83;;;11.25;;
787;SDS011;16074;42.708;23.312;2023-02-28T14:48:54;16.23;;;11.55;;
787;SDS011;16074;42.708;23.312;2023-02-28T14:51:23;19.23;;;11.82;;
787;SDS011;16074;42.708;23.312;2023-02-28T14:53:53;20.98;;;12.15;;
787;SDS011;16074;42.708;23.312;2023-02-28T14:56:27;17.80;;;11.88;;
787;SDS011;16074;42.708;23.312;2023-02-28T14:59:00;17.27;;;11.20;;
787;SDS011;16074;42.708;23.312;2023-02-28T15:01:31;17.65;;;11.20;;
787;SDS011;16074;42.708;23.312;2023-02-28T15:04:01;14.40;;;9.30;;
787;SDS011;16074;42.708;23.312;2023-02-28T15:06:32;20.50;;;11.27;;
787;SDS011;16074;42.708;23.312;2023-02-28T15:09:08;15.30;;;10.25;;
787;SDS011;16074;42.708;23.312;2023-02-28T15:11:38;18.92;;;10.27;;
787;SDS011;16074;42.708;23.312;2023-02-28T15:14:12;15.00;;;11.10;;
787;SDS011;16074;42.708;23.312;2023-02-28T15:16:47;23.23;;;12.70;;
787;SDS011;16074;42.708;23.312;2023-02-28T15:19:21;14.52;;;11.90;;
787;SDS011;16074;42.708;23.312;2023-02-28T15:21:54;16.45;;;11.50;;
787;SDS011;16074;42.708;23.312;2023-02-28T15:24:28;25.05;;;13.60;;
787;SDS011;16074;42.708;23.312;2023-02-28T15:27:04;19.13;;;10.27;;
787;SDS011;16074;42.708;23.312;2023-02-28T15:29:37;12.07;;;9.77;;
787;SDS011;16074;42.708;23.312;2023-02-28T15:32:23;17.02;;;12.38;;
787;SDS011;16074;42.708;23.312;2023-02-28T15:34:54;17.27;;;13.48;;
787;SDS011;16074;42.708;23.312;2023-02-28T15:37:39;14.70;;;11.85;;
787;SDS011;16074;42.708;23.312;2023-02-28T15:40:13;16.05;;;10.80;;
787;SDS011;16074;42.708;23.312;2023-02-28T15:42:57;14.68;;;11.10;;
787;SDS011;16074;42.708;23.312;2023-02-28T15:45:28;14.82;;;11.07;;